createdAt,value
2022-09-09T00:02:00.211Z,10.02
2022-09-09T00:07:15.038Z,9.68
2022-09-09T00:12:21.909Z,10.57
2022-09-09T00:17:26.997Z,11.38
2022-09-09T00:22:22.171Z,10.43
2022-09-09T00:27:21.395Z,10.60
2022-09-09T00:32:20.255Z,10.55
2022-09-09T00:37:14.165Z,9.50
2022-09-09T00:42:30.357Z,9.20
2022-09-09T00:47:46.232Z,9.98
2022-09-09T00:52:49.626Z,9.63
2022-09-09T00:57:43.319Z,8.77
2022-09-09T01:03:13.397Z,7.00
2022-09-09T01:08:33.308Z,5.05
2022-09-09T01:13:32.020Z,4.30
2022-09-09T01:18:30.781Z,4.33
2022-09-09T01:24:02.709Z,4.05
2022-09-09T01:29:06.164Z,3.80
2022-09-09T01:34:03.136Z,4.07
2022-09-09T01:38:57.114Z,3.75
2022-09-09T01:43:52.179Z,4.07
2022-09-09T01:48:45.200Z,3.63
2022-09-09T01:58:45.209Z,4.35
2022-09-09T02:03:38.630Z,5.65
2022-09-09T02:08:48.413Z,6.32
2022-09-09T02:13:43.481Z,6.78
2022-09-09T02:18:43.163Z,5.72
2022-09-09T02:23:38.033Z,6.25
2022-09-09T02:28:35.916Z,4.97
2022-09-09T02:33:35.936Z,4.50
2022-09-09T02:38:31.545Z,4.47
2022-09-09T02:43:38.847Z,3.42
2022-09-09T02:49:04.982Z,4.88
2022-09-09T02:54:09.616Z,4.75
2022-09-09T02:59:06.230Z,5.25
2022-09-09T03:04:02.454Z,5.30
2022-09-09T03:08:56.660Z,4.53
2022-09-09T03:13:53.524Z,4.47
2022-09-09T03:18:48.526Z,4.57
2022-09-09T03:23:42.103Z,4.03
2022-09-09T03:28:37.159Z,4.97
2022-09-09T03:33:31.813Z,4.07
2022-09-09T03:38:26.210Z,4.90
2022-09-09T03:43:20.409Z,4.68
2022-09-09T03:48:15.127Z,5.65
2022-09-09T03:53:08.972Z,5.20
2022-09-09T03:58:03.001Z,5.20
2022-09-09T04:02:58.321Z,4.60
2022-09-09T04:07:53.079Z,4.53
2022-09-09T04:12:49.516Z,4.60
2022-09-09T04:17:44.563Z,4.18
2022-09-09T04:22:39.776Z,3.00
2022-09-09T04:27:34.044Z,3.63
2022-09-09T04:32:28.153Z,3.60
2022-09-09T04:37:22.365Z,3.50
2022-09-09T04:42:17.465Z,2.30
2022-09-09T04:47:11.378Z,3.35
2022-09-09T04:52:05.505Z,2.90
2022-09-09T04:57:01.753Z,2.28
2022-09-09T05:01:57.084Z,2.05
2022-09-09T05:06:50.868Z,2.65
2022-09-09T05:11:45.724Z,2.20
2022-09-09T05:16:50.970Z,2.03
2022-09-09T05:21:45.559Z,2.88
2022-09-09T05:26:41.525Z,3.30
2022-09-09T05:31:36.165Z,4.40
2022-09-09T05:36:33.971Z,5.70
2022-09-09T05:41:27.285Z,4.80
2022-09-09T05:46:23.386Z,5.00
2022-09-09T05:51:23.453Z,5.65
2022-09-09T05:56:20.308Z,4.75
2022-09-09T06:01:15.513Z,4.85
2022-09-09T06:06:11.794Z,4.13
2022-09-09T06:11:15.429Z,4.28
2022-09-09T06:16:14.056Z,4.80
2022-09-09T06:21:13.578Z,4.10
2022-09-09T06:26:27.042Z,3.50
2022-09-09T06:31:29.688Z,6.93
2022-09-09T06:36:34.823Z,11.85
2022-09-09T06:41:31.828Z,13.80
2022-09-09T06:46:31.972Z,12.50
2022-09-09T06:51:34.176Z,16.60
2022-09-09T06:56:31.549Z,17.98
2022-09-09T07:01:28.575Z,13.63
2022-09-09T07:06:27.896Z,11.82
2022-09-09T07:11:27.345Z,10.00
2022-09-09T07:16:22.856Z,7.18
2022-09-09T07:21:17.879Z,6.07
2022-09-09T07:26:15.203Z,6.72
2022-09-09T07:31:09.587Z,5.85
2022-09-09T07:36:10.920Z,4.53
2022-09-09T07:41:29.840Z,4.22
2022-09-09T07:46:25.531Z,7.70
2022-09-09T07:51:21.310Z,7.30
2022-09-09T07:56:18.786Z,9.95
2022-09-09T08:01:19.603Z,9.85
2022-09-09T08:06:15.412Z,11.93
2022-09-09T08:11:16.410Z,16.85
2022-09-09T08:16:14.235Z,22.73
2022-09-09T08:21:15.780Z,24.48
2022-09-09T08:26:13.008Z,24.30
2022-09-09T08:31:22.192Z,25.35
2022-09-09T08:36:18.840Z,20.13
2022-09-09T08:41:25.210Z,25.35
2022-09-09T08:46:22.186Z,21.88
2022-09-09T08:51:15.631Z,19.83
2022-09-09T08:56:20.511Z,19.98
2022-09-09T09:01:22.970Z,18.88
2022-09-09T09:07:06.645Z,22.45
2022-09-09T09:12:03.928Z,22.67
2022-09-09T09:17:08.114Z,22.75
2022-09-09T09:22:21.753Z,24.73
2022-09-09T09:27:53.109Z,27.05
2022-09-09T09:33:30.486Z,26.50
2022-09-09T09:43:46.487Z,20.75
2022-09-09T09:48:42.860Z,16.92
2022-09-09T09:58:35.798Z,17.40
2022-09-09T10:03:31.762Z,13.25
2022-09-09T10:08:28.867Z,13.18
2022-09-09T10:13:32.102Z,7.93
2022-09-09T10:23:58.424Z,6.00
2022-09-09T10:29:06.598Z,10.45
2022-09-09T10:34:11.867Z,8.85
2022-09-09T10:39:29.910Z,8.52
2022-09-09T10:44:28.648Z,8.07
2022-09-09T10:49:40.060Z,8.88
2022-09-09T10:54:56.131Z,9.48
2022-09-09T10:59:54.041Z,7.15
2022-09-09T11:04:58.555Z,8.90
2022-09-09T11:09:57.304Z,5.95
2022-09-09T11:14:55.577Z,6.05
2022-09-09T11:19:50.422Z,4.53
2022-09-09T11:24:53.658Z,3.00
2022-09-09T11:29:58.904Z,2.42
2022-09-09T11:35:24.489Z,2.40
2022-09-09T11:40:28.617Z,2.47
2022-09-09T11:45:30.197Z,2.25
2022-09-09T11:50:23.292Z,2.25
2022-09-09T11:55:32.534Z,1.92
2022-09-09T12:00:38.823Z,2.03
2022-09-09T12:05:43.958Z,2.63
2022-09-09T12:10:43.767Z,5.32
2022-09-09T12:15:38.551Z,4.40
2022-09-09T12:20:32.562Z,4.70
2022-09-09T12:25:35.573Z,3.80
2022-09-09T12:30:40.038Z,3.20
2022-09-09T12:35:33.320Z,3.17
2022-09-09T12:40:31.966Z,2.60
2022-09-09T12:45:32.190Z,3.33
2022-09-09T12:50:35.218Z,2.72
2022-09-09T12:55:38.872Z,3.08
2022-09-09T13:00:32.971Z,2.35
2022-09-09T13:05:38.785Z,2.67
2022-09-09T13:10:51.735Z,2.60
2022-09-09T13:15:55.766Z,1.85
2022-09-09T13:25:45.332Z,2.45
2022-09-09T13:30:45.747Z,1.90
2022-09-09T13:35:58.231Z,2.20
2022-09-09T13:41:06.739Z,2.00
2022-09-09T13:46:05.560Z,2.65
2022-09-09T13:51:00.847Z,2.22
2022-09-09T13:55:55.262Z,2.50
2022-09-09T14:00:48.341Z,2.38
2022-09-09T14:05:41.621Z,2.55
2022-09-09T14:10:39.107Z,2.58
2022-09-09T14:15:33.842Z,2.45
2022-09-09T14:20:27.661Z,2.47
2022-09-09T14:25:20.014Z,2.78
2022-09-09T14:30:15.649Z,2.80
2022-09-09T14:35:09.638Z,2.20
2022-09-09T14:40:04.095Z,2.70
2022-09-09T14:44:57.557Z,2.65
2022-09-09T14:49:51.825Z,2.25
2022-09-09T14:54:44.989Z,2.80
2022-09-09T14:59:39.004Z,2.30
2022-09-09T15:04:33.410Z,2.78
2022-09-09T15:09:27.411Z,2.20
2022-09-09T15:14:22.619Z,2.05
2022-09-09T15:19:19.163Z,2.53
2022-09-09T15:24:15.545Z,2.55
2022-09-09T15:29:10.300Z,2.30
2022-09-09T15:34:06.527Z,2.13
2022-09-09T15:39:00.344Z,2.50
2022-09-09T15:43:58.391Z,2.65
2022-09-09T15:48:54.351Z,2.67
2022-09-09T15:53:48.666Z,2.20
2022-09-09T15:58:44.180Z,2.38
2022-09-09T16:04:01.592Z,2.70
2022-09-09T16:08:56.471Z,2.05
2022-09-09T16:13:56.118Z,2.63
2022-09-09T16:18:53.354Z,2.03
2022-09-09T16:23:47.253Z,2.40
2022-09-09T16:28:45.670Z,2.67
2022-09-09T16:33:39.740Z,2.38
2022-09-09T16:38:34.686Z,2.78
2022-09-09T16:43:28.821Z,2.38
2022-09-09T16:48:22.017Z,2.17
2022-09-09T16:53:16.954Z,2.10
2022-09-09T16:58:13.360Z,3.05
2022-09-09T17:03:07.476Z,2.30
2022-09-09T17:08:04.314Z,2.95
2022-09-09T17:12:58.456Z,2.28
2022-09-09T17:17:54.521Z,1.52
2022-09-09T17:22:48.956Z,1.73
2022-09-09T17:27:42.712Z,1.73
2022-09-09T17:32:37.231Z,1.98
2022-09-09T17:37:34.553Z,1.70
2022-09-09T17:42:29.433Z,2.05
2022-09-09T17:47:27.831Z,2.35
2022-09-09T17:52:21.143Z,2.53
2022-09-09T17:57:21.352Z,2.13
2022-09-09T18:02:15.295Z,2.50
2022-09-09T18:07:14.006Z,2.70
2022-09-09T18:12:08.659Z,2.63
2022-09-09T18:17:04.950Z,2.10
2022-09-09T18:22:01.884Z,2.47
2022-09-09T18:26:56.601Z,2.75
2022-09-09T18:31:50.586Z,2.85
2022-09-09T18:36:47.724Z,3.00
2022-09-09T18:41:46.004Z,3.17
2022-09-09T18:46:40.786Z,2.80
2022-09-09T18:51:35.424Z,2.88
2022-09-09T18:56:33.207Z,2.80
2022-09-09T19:01:27.430Z,3.05
2022-09-09T19:06:26.583Z,3.28
2022-09-09T19:11:26.206Z,2.55
2022-09-09T19:16:23.508Z,3.58
2022-09-09T19:21:28.436Z,3.92
2022-09-09T19:26:22.891Z,4.97
2022-09-09T19:31:18.841Z,4.35
2022-09-09T19:36:14.650Z,4.10
2022-09-09T19:41:09.944Z,3.55
2022-09-09T19:46:07.498Z,3.83
2022-09-09T19:51:05.972Z,4.05
2022-09-09T19:55:59.983Z,3.80
2022-09-09T20:00:54.377Z,4.13
2022-09-09T20:05:49.861Z,3.83
2022-09-09T20:10:52.805Z,3.88
2022-09-09T20:21:00.891Z,3.20
2022-09-09T20:25:54.253Z,5.03
2022-09-09T20:30:51.957Z,4.50
2022-09-09T20:35:46.421Z,3.30
2022-09-09T20:40:40.423Z,3.75
2022-09-09T20:45:38.749Z,2.88
2022-09-09T20:50:33.020Z,2.42
2022-09-09T20:55:27.509Z,2.25
2022-09-09T21:00:22.034Z,2.58
2022-09-09T21:05:24.059Z,2.10
2022-09-09T21:10:18.382Z,2.53
2022-09-09T21:15:13.337Z,2.50
2022-09-09T21:20:09.469Z,2.33
2022-09-09T21:25:03.646Z,2.30
2022-09-09T21:29:57.804Z,1.70
2022-09-09T21:34:51.114Z,2.40
2022-09-09T21:39:46.277Z,2.53
2022-09-09T21:44:40.953Z,2.10
2022-09-09T21:49:34.824Z,2.40
2022-09-09T21:54:34.138Z,2.30
2022-09-09T21:59:28.936Z,2.95
2022-09-09T22:04:21.791Z,2.63
2022-09-09T22:09:17.971Z,3.00
2022-09-09T22:14:12.089Z,3.20
2022-09-09T22:19:08.089Z,3.35
2022-09-09T22:24:04.372Z,3.42
2022-09-09T22:28:58.019Z,3.10
2022-09-09T22:33:54.949Z,3.10
2022-09-09T22:38:49.608Z,2.70
2022-09-09T22:43:44.247Z,3.40
2022-09-09T22:48:40.506Z,4.55
2022-09-09T22:53:34.832Z,7.10
2022-09-09T22:58:30.285Z,9.55
2022-09-09T23:03:24.639Z,8.55
2022-09-09T23:08:19.544Z,8.05
2022-09-09T23:13:13.459Z,10.73
2022-09-09T23:18:07.710Z,10.45
2022-09-09T23:23:01.374Z,10.13
2022-09-09T23:27:55.449Z,11.30
2022-09-09T23:32:53.047Z,10.60
2022-09-09T23:37:47.513Z,9.60
2022-09-09T23:42:41.075Z,8.32
2022-09-09T23:47:35.028Z,7.63
2022-09-09T23:52:28.980Z,8.93
2022-09-09T23:57:26.505Z,9.27
